sensor_id;sensor_type;location;lat;lon;timestamp;pressure;altitude;pressure_sealevel;temperature;humidity
36304;BME280;22335;49.800;8.596;2022-11-10T00:02:26;100817.56;;;16.30;59.34
36304;BME280;22335;49.800;8.596;2022-11-10T00:09:33;100806.69;;;16.33;59.08
36304;BME280;22335;49.800;8.596;2022-11-10T00:16:37;100827.91;;;16.24;59.09
36304;BME280;22335;49.800;8.596;2022-11-10T00:23:54;100834.78;;;16.13;59.54
36304;BME280;22335;49.800;8.596;2022-11-10T00:31:04;100854.34;;;16.03;59.50
36304;BME280;22335;49.800;8.596;2022-11-10T00:38:08;100863.28;;;15.86;59.83
36304;BME280;22335;49.800;8.596;2022-11-10T00:45:12;100866.44;;;15.93;59.39
36304;BME280;22335;49.800;8.596;2022-11-10T00:52:18;100886.53;;;16.07;59.39
36304;BME280;22335;49.800;8.596;2022-11-10T00:59:23;100901.25;;;16.03;59.05
36304;BME280;22335;49.800;8.596;2022-11-10T01:06:27;100919.44;;;16.04;59.34
36304;BME280;22335;49.800;8.596;2022-11-10T01:13:34;100827.06;;;15.51;58.74
36304;BME280;22335;49.800;8.596;2022-11-10T01:20:38;100929.97;;;16.38;58.65
36304;BME280;22335;49.800;8.596;2022-11-10T01:27:42;100944.69;;;16.11;59.09
36304;BME280;22335;49.800;8.596;2022-11-10T01:34:48;100940.41;;;15.91;59.21
36304;BME280;22335;49.800;8.596;2022-11-10T01:41:52;100967.88;;;16.10;59.24
36304;BME280;22335;49.800;8.596;2022-11-10T01:48:59;100959.47;;;16.15;58.81
36304;BME280;22335;49.800;8.596;2022-11-10T01:56:06;100971.66;;;16.50;58.42
36304;BME280;22335;49.800;8.596;2022-11-10T02:03:13;100974.81;;;16.57;58.15
36304;BME280;22335;49.800;8.596;2022-11-10T02:10:19;100969.84;;;16.32;58.32
36304;BME280;22335;49.800;8.596;2022-11-10T02:17:26;100967.78;;;16.01;58.52
36304;BME280;22335;49.800;8.596;2022-11-10T02:24:33;100977.81;;;15.70;58.67
36304;BME280;22335;49.800;8.596;2022-11-10T02:31:37;100989.53;;;15.61;58.64
36304;BME280;22335;49.800;8.596;2022-11-10T02:38:41;100993.13;;;15.76;58.48
36304;BME280;22335;49.800;8.596;2022-11-10T02:45:47;101003.66;;;15.87;58.39
36304;BME280;22335;49.800;8.596;2022-11-10T02:52:51;101008.97;;;15.98;57.84
36304;BME280;22335;49.800;8.596;2022-11-10T02:59:55;100987.81;;;15.79;58.15
36304;BME280;22335;49.800;8.596;2022-11-10T03:07:07;100923.44;;;15.15;58.35
36304;BME280;22335;49.800;8.596;2022-11-10T03:14:11;101002.94;;;15.68;58.16
36304;BME280;22335;49.800;8.596;2022-11-10T03:21:15;101024.03;;;15.59;58.10
36304;BME280;22335;49.800;8.596;2022-11-10T03:28:22;101028.13;;;15.61;58.22
36304;BME280;22335;49.800;8.596;2022-11-10T03:35:26;101038.38;;;15.75;57.74
36304;BME280;22335;49.800;8.596;2022-11-10T03:42:30;101057.66;;;15.61;57.90
36304;BME280;22335;49.800;8.596;2022-11-10T04:03:24;101096.88;;;15.06;58.79
36304;BME280;22335;49.800;8.596;2022-11-10T04:10:29;101094.63;;;14.89;59.14
36304;BME280;22335;49.800;8.596;2022-11-10T04:17:34;101109.69;;;14.78;59.50
36304;BME280;22335;49.800;8.596;2022-11-10T04:24:42;101106.94;;;14.59;59.92
36304;BME280;22335;49.800;8.596;2022-11-10T04:31:46;101127.72;;;14.46;60.18
36304;BME280;22335;49.800;8.596;2022-11-10T04:38:51;101138.63;;;14.27;60.68
36304;BME280;22335;49.800;8.596;2022-11-10T04:45:58;101133.16;;;14.03;61.05
36304;BME280;22335;49.800;8.596;2022-11-10T04:53:04;101142.78;;;14.01;60.98
36304;BME280;22335;49.800;8.596;2022-11-10T05:00:09;101131.59;;;13.92;61.38
36304;BME280;22335;49.800;8.596;2022-11-10T05:07:17;101148.91;;;13.93;61.63
36304;BME280;22335;49.800;8.596;2022-11-10T05:14:21;101171.00;;;13.88;61.88
36304;BME280;22335;49.800;8.596;2022-11-10T05:21:25;101185.88;;;13.81;62.00
36304;BME280;22335;49.800;8.596;2022-11-10T05:28:33;101100.91;;;13.17;62.49
36304;BME280;22335;49.800;8.596;2022-11-10T05:35:37;101231.28;;;13.79;62.33
36304;BME280;22335;49.800;8.596;2022-11-10T05:42:42;101233.81;;;14.04;62.00
36304;BME280;22335;49.800;8.596;2022-11-10T05:49:49;101253.28;;;14.08;61.94
36304;BME280;22335;49.800;8.596;2022-11-10T05:56:53;101259.47;;;14.24;61.55
36304;BME280;22335;49.800;8.596;2022-11-10T06:03:57;101268.66;;;14.43;61.12
36304;BME280;22335;49.800;8.596;2022-11-10T06:11:04;101275.69;;;14.60;60.72
36304;BME280;22335;49.800;8.596;2022-11-10T06:18:08;101283.94;;;14.60;60.63
36304;BME280;22335;49.800;8.596;2022-11-10T06:25:12;101308.94;;;14.34;61.26
36304;BME280;22335;49.800;8.596;2022-11-10T06:32:19;101319.31;;;14.08;61.79
36304;BME280;22335;49.800;8.596;2022-11-10T06:39:23;101340.00;;;14.00;61.86
36304;BME280;22335;49.800;8.596;2022-11-10T06:46:27;101365.13;;;13.89;62.02
36304;BME280;22335;49.800;8.596;2022-11-10T06:53:39;101374.28;;;13.74;62.24
36304;BME280;22335;49.800;8.596;2022-11-10T07:00:44;101393.00;;;13.67;62.70
36304;BME280;22335;49.800;8.596;2022-11-10T07:07:48;101390.84;;;13.58;62.96
36304;BME280;22335;49.800;8.596;2022-11-10T07:14:54;101408.97;;;13.65;63.17
36304;BME280;22335;49.800;8.596;2022-11-10T07:21:59;101407.59;;;13.62;62.95
36304;BME280;22335;49.800;8.596;2022-11-10T07:29:09;101414.75;;;13.63;63.08
36304;BME280;22335;49.800;8.596;2022-11-10T07:36:16;101431.69;;;13.80;63.19
36304;BME280;22335;49.800;8.596;2022-11-10T07:43:22;101447.28;;;14.00;62.96
36304;BME280;22335;49.800;8.596;2022-11-10T07:50:26;101465.63;;;14.15;63.09
36304;BME280;22335;49.800;8.596;2022-11-10T07:57:34;101476.28;;;14.27;63.24
36304;BME280;22335;49.800;8.596;2022-11-10T08:04:38;101492.78;;;14.32;62.86
36304;BME280;22335;49.800;8.596;2022-11-10T08:11:42;101504.59;;;14.33;63.11
36304;BME280;22335;49.800;8.596;2022-11-10T08:18:49;101501.34;;;14.25;63.47
36304;BME280;22335;49.800;8.596;2022-11-10T08:25:53;101512.88;;;14.27;63.45
36304;BME280;22335;49.800;8.596;2022-11-10T08:33:01;101459.69;;;13.98;63.62
36304;BME280;22335;49.800;8.596;2022-11-10T08:40:10;101527.34;;;14.48;63.45
36304;BME280;22335;49.800;8.596;2022-11-10T08:47:14;101521.03;;;14.48;63.61
36304;BME280;22335;49.800;8.596;2022-11-10T08:54:18;101534.19;;;14.61;63.64
36304;BME280;22335;49.800;8.596;2022-11-10T09:01:25;101536.41;;;14.59;64.04
36304;BME280;22335;49.800;8.596;2022-11-10T09:08:29;101541.53;;;14.71;63.81
36304;BME280;22335;49.800;8.596;2022-11-10T09:15:34;101554.63;;;14.89;63.93
36304;BME280;22335;49.800;8.596;2022-11-10T09:22:41;101556.25;;;14.95;64.24
36304;BME280;22335;49.800;8.596;2022-11-10T09:29:45;101562.97;;;15.18;63.88
36304;BME280;22335;49.800;8.596;2022-11-10T09:36:49;101570.56;;;15.32;63.56
36304;BME280;22335;49.800;8.596;2022-11-10T09:44:00;101592.91;;;15.59;63.53
36304;BME280;22335;49.800;8.596;2022-11-10T09:51:08;101606.13;;;15.91;63.06
36304;BME280;22335;49.800;8.596;2022-11-10T09:58:20;101605.78;;;15.98;62.74
36304;BME280;22335;49.800;8.596;2022-11-10T10:05:47;101616.75;;;16.03;63.04
36304;BME280;22335;49.800;8.596;2022-11-10T10:13:06;101621.41;;;16.08;62.71
36304;BME280;22335;49.800;8.596;2022-11-10T10:20:28;101632.56;;;16.22;63.10
36304;BME280;22335;49.800;8.596;2022-11-10T10:27:39;101531.03;;;15.95;62.81
36304;BME280;22335;49.800;8.596;2022-11-10T10:34:44;101620.34;;;16.71;61.86
36304;BME280;22335;49.800;8.596;2022-11-10T10:41:48;101635.16;;;16.80;61.75
36304;BME280;22335;49.800;8.596;2022-11-10T10:49:15;101616.69;;;16.75;61.61
36304;BME280;22335;49.800;8.596;2022-11-10T10:56:31;101626.81;;;17.04;61.46
36304;BME280;22335;49.800;8.596;2022-11-10T11:03:40;101615.78;;;17.18;61.36
36304;BME280;22335;49.800;8.596;2022-11-10T11:10:48;101606.41;;;17.19;60.56
36304;BME280;22335;49.800;8.596;2022-11-10T11:17:53;101616.16;;;17.30;60.40
36304;BME280;22335;49.800;8.596;2022-11-10T11:25:05;101618.72;;;17.40;60.39
36304;BME280;22335;49.800;8.596;2022-11-10T11:32:29;101620.41;;;17.55;60.09
36304;BME280;22335;49.800;8.596;2022-11-10T11:40:00;101555.63;;;17.28;59.53
36304;BME280;22335;49.800;8.596;2022-11-10T11:47:28;101628.75;;;17.88;59.49
36304;BME280;22335;49.800;8.596;2022-11-10T11:54:47;101630.00;;;18.09;58.99
36304;BME280;22335;49.800;8.596;2022-11-10T12:02:22;101622.19;;;18.25;58.61
36304;BME280;22335;49.800;8.596;2022-11-10T12:10:01;101631.81;;;18.41;58.66
36304;BME280;22335;49.800;8.596;2022-11-10T12:17:17;101624.22;;;18.47;58.13
36304;BME280;22335;49.800;8.596;2022-11-10T12:24:39;101626.66;;;18.62;57.79
36304;BME280;22335;49.800;8.596;2022-11-10T12:31:54;101621.97;;;18.77;57.54
36304;BME280;22335;49.800;8.596;2022-11-10T12:39:08;101623.41;;;18.74;57.62
36304;BME280;22335;49.800;8.596;2022-11-10T12:46:18;101643.47;;;18.94;57.49
36304;BME280;22335;49.800;8.596;2022-11-10T12:53:26;101645.50;;;19.02;57.14
36304;BME280;22335;49.800;8.596;2022-11-10T13:00:38;101648.66;;;19.09;56.74
36304;BME280;22335;49.800;8.596;2022-11-10T13:07:47;101638.28;;;19.15;56.51
36304;BME280;22335;49.800;8.596;2022-11-10T13:14:54;101637.75;;;19.12;56.02
36304;BME280;22335;49.800;8.596;2022-11-10T13:22:09;101657.53;;;19.20;55.92
36304;BME280;22335;49.800;8.596;2022-11-10T13:29:27;101655.63;;;19.20;55.63
36304;BME280;22335;49.800;8.596;2022-11-10T13:36:40;101650.38;;;19.19;54.66
36304;BME280;22335;49.800;8.596;2022-11-10T13:43:49;101650.47;;;19.13;54.31
36304;BME280;22335;49.800;8.596;2022-11-10T13:51:02;101655.28;;;19.22;54.21
36304;BME280;22335;49.800;8.596;2022-11-10T13:58:23;101654.34;;;19.26;54.05
36304;BME280;22335;49.800;8.596;2022-11-10T14:13:12;101666.66;;;19.34;53.47
36304;BME280;22335;49.800;8.596;2022-11-10T14:20:25;101661.22;;;19.29;53.30
36304;BME280;22335;49.800;8.596;2022-11-10T14:27:33;101672.06;;;19.39;53.24
36304;BME280;22335;49.800;8.596;2022-11-10T14:34:44;101693.50;;;19.47;53.50
36304;BME280;22335;49.800;8.596;2022-11-10T14:41:51;101678.63;;;19.43;53.15
36304;BME280;22335;49.800;8.596;2022-11-10T14:48:57;101690.63;;;19.52;53.17
36304;BME280;22335;49.800;8.596;2022-11-10T14:56:05;101698.94;;;19.52;52.99
36304;BME280;22335;49.800;8.596;2022-11-10T15:03:22;101697.09;;;19.48;52.90
36304;BME280;22335;49.800;8.596;2022-11-10T15:10:43;101706.38;;;19.43;52.94
36304;BME280;22335;49.800;8.596;2022-11-10T15:17:50;101709.78;;;19.40;53.10
36304;BME280;22335;49.800;8.596;2022-11-10T15:24:58;101625.94;;;18.84;52.80
36304;BME280;22335;49.800;8.596;2022-11-10T15:32:13;101709.44;;;19.19;52.83
36304;BME280;22335;49.800;8.596;2022-11-10T15:39:22;101704.63;;;19.11;52.80
36304;BME280;22335;49.800;8.596;2022-11-10T15:46:30;101727.31;;;19.13;52.71
36304;BME280;22335;49.800;8.596;2022-11-10T15:53:35;101729.44;;;19.30;53.15
36304;BME280;22335;49.800;8.596;2022-11-10T16:00:41;101733.31;;;18.93;53.11
36304;BME280;22335;49.800;8.596;2022-11-10T16:07:47;101736.91;;;18.79;53.20
36304;BME280;22335;49.800;8.596;2022-11-10T16:14:51;101754.38;;;18.80;52.77
36304;BME280;22335;49.800;8.596;2022-11-10T16:21:55;101761.53;;;18.67;52.58
36304;BME280;22335;49.800;8.596;2022-11-10T16:29:02;101748.19;;;18.69;52.40
36304;BME280;22335;49.800;8.596;2022-11-10T16:36:20;101755.69;;;18.69;52.70
36304;BME280;22335;49.800;8.596;2022-11-10T16:43:26;101766.66;;;18.60;52.75
36304;BME280;22335;49.800;8.596;2022-11-10T16:50:35;101776.34;;;18.76;51.75
36304;BME280;22335;49.800;8.596;2022-11-10T16:57:39;101771.63;;;18.77;51.57
36304;BME280;22335;49.800;8.596;2022-11-10T17:04:43;101780.22;;;18.61;52.00
36304;BME280;22335;49.800;8.596;2022-11-10T17:11:50;101792.00;;;18.53;51.81
36304;BME280;22335;49.800;8.596;2022-11-10T17:18:55;101790.66;;;18.37;51.82
36304;BME280;22335;49.800;8.596;2022-11-10T17:26:01;101818.69;;;18.49;51.84
36304;BME280;22335;49.800;8.596;2022-11-10T17:33:08;101820.28;;;18.04;52.60
36304;BME280;22335;49.800;8.596;2022-11-10T17:40:16;101853.09;;;17.96;52.37
36304;BME280;22335;49.800;8.596;2022-11-10T17:47:22;101848.28;;;17.83;52.46
36304;BME280;22335;49.800;8.596;2022-11-10T17:54:28;101852.81;;;17.74;52.47
36304;BME280;22335;49.800;8.596;2022-11-10T18:01:33;101852.22;;;17.58;52.16
36304;BME280;22335;49.800;8.596;2022-11-10T18:08:37;101863.00;;;17.60;52.38
36304;BME280;22335;49.800;8.596;2022-11-10T18:15:45;101842.81;;;17.16;52.68
36304;BME280;22335;49.800;8.596;2022-11-10T18:22:53;101881.47;;;16.97;52.81
36304;BME280;22335;49.800;8.596;2022-11-10T18:29:57;101864.09;;;16.92;52.71
36304;BME280;22335;49.800;8.596;2022-11-10T18:37:04;101856.09;;;16.61;53.24
36304;BME280;22335;49.800;8.596;2022-11-10T18:44:08;101881.69;;;16.37;53.40
36304;BME280;22335;49.800;8.596;2022-11-10T18:51:13;101874.63;;;16.26;53.70
36304;BME280;22335;49.800;8.596;2022-11-10T18:58:20;101862.16;;;16.29;53.24
36304;BME280;22335;49.800;8.596;2022-11-10T19:05:25;101889.81;;;16.58;53.10
36304;BME280;22335;49.800;8.596;2022-11-10T19:12:30;101904.31;;;16.45;53.32
36304;BME280;22335;49.800;8.596;2022-11-10T19:19:36;101846.34;;;16.05;53.34
36304;BME280;22335;49.800;8.596;2022-11-10T19:26:41;101907.25;;;16.53;53.16
36304;BME280;22335;49.800;8.596;2022-11-10T19:33:45;101908.94;;;16.49;53.16
36304;BME280;22335;49.800;8.596;2022-11-10T19:40:52;101937.97;;;16.47;52.83
36304;BME280;22335;49.800;8.596;2022-11-10T19:47:56;101929.97;;;16.45;52.88
36304;BME280;22335;49.800;8.596;2022-11-10T19:55:00;101959.81;;;16.43;52.67
36304;BME280;22335;49.800;8.596;2022-11-10T20:02:08;101969.25;;;16.37;52.54
36304;BME280;22335;49.800;8.596;2022-11-10T20:09:13;101942.00;;;16.25;52.43
36304;BME280;22335;49.800;8.596;2022-11-10T20:16:16;101898.59;;;15.91;52.41
36304;BME280;22335;49.800;8.596;2022-11-10T20:23:23;101944.34;;;16.03;52.56
36304;BME280;22335;49.800;8.596;2022-11-10T20:30:28;101945.50;;;15.91;52.80
36304;BME280;22335;49.800;8.596;2022-11-10T20:37:33;101856.41;;;15.31;52.55
36304;BME280;22335;49.800;8.596;2022-11-10T20:44:39;101940.88;;;15.82;52.24
36304;BME280;22335;49.800;8.596;2022-11-10T20:51:44;101947.75;;;15.84;52.34
36304;BME280;22335;49.800;8.596;2022-11-10T20:58:48;101941.44;;;15.79;52.72
36304;BME280;22335;49.800;8.596;2022-11-10T21:05:56;101861.16;;;15.15;52.47
36304;BME280;22335;49.800;8.596;2022-11-10T21:13:00;101951.69;;;15.63;52.79
36304;BME280;22335;49.800;8.596;2022-11-10T21:20:06;101964.94;;;15.61;52.60
36304;BME280;22335;49.800;8.596;2022-11-10T21:27:13;101957.81;;;15.55;52.72
36304;BME280;22335;49.800;8.596;2022-11-10T21:34:17;101956.94;;;15.59;52.82
36304;BME280;22335;49.800;8.596;2022-11-10T21:41:21;101967.72;;;15.56;52.59
36304;BME280;22335;49.800;8.596;2022-11-10T21:48:28;101963.34;;;15.44;52.52
36304;BME280;22335;49.800;8.596;2022-11-10T21:55:32;101954.50;;;15.48;52.32
36304;BME280;22335;49.800;8.596;2022-11-10T22:02:36;101947.91;;;15.43;52.55
36304;BME280;22335;49.800;8.596;2022-11-10T22:09:43;101967.78;;;15.40;52.24
36304;BME280;22335;49.800;8.596;2022-11-10T22:17:00;101962.00;;;15.32;52.22
36304;BME280;22335;49.800;8.596;2022-11-10T22:24:16;101967.78;;;15.35;52.08
36304;BME280;22335;49.800;8.596;2022-11-10T22:31:31;101977.16;;;15.29;52.61
36304;BME280;22335;49.800;8.596;2022-11-10T22:38:37;101974.13;;;15.26;52.19
36304;BME280;22335;49.800;8.596;2022-11-10T22:45:43;101963.41;;;15.19;52.18
36304;BME280;22335;49.800;8.596;2022-11-10T22:52:50;101937.53;;;14.94;51.93
36304;BME280;22335;49.800;8.596;2022-11-10T22:59:54;101977.78;;;15.06;52.03
36304;BME280;22335;49.800;8.596;2022-11-10T23:06:59;101956.28;;;14.77;52.04
36304;BME280;22335;49.800;8.596;2022-11-10T23:14:08;101975.03;;;14.75;52.02
36304;BME280;22335;49.800;8.596;2022-11-10T23:21:14;101957.69;;;14.59;51.98
36304;BME280;22335;49.800;8.596;2022-11-10T23:28:19;101965.69;;;14.56;52.03
36304;BME280;22335;49.800;8.596;2022-11-10T23:35:26;101966.19;;;14.47;52.26
36304;BME280;22335;49.800;8.596;2022-11-10T23:42:30;101982.13;;;14.45;52.13
36304;BME280;22335;49.800;8.596;2022-11-10T23:49:33;101966.16;;;14.32;52.17
36304;BME280;22335;49.800;8.596;2022-11-10T23:56:40;101964.22;;;14.27;52.19
